createdAt,value
2022-11-24T00:01:32.983Z,96424.44
2022-11-24T00:04:04.104Z,96428.06
2022-11-24T00:06:34.016Z,96440.38
2022-11-24T00:09:02.931Z,96433.50
2022-11-24T00:11:33.982Z,96431.97
2022-11-24T00:14:03.414Z,96441.97
2022-11-24T00:16:33.553Z,96448.19
2022-11-24T00:19:05.590Z,96445.03
2022-11-24T00:21:33.971Z,96449.47
2022-11-24T00:24:02.555Z,96454.56
2022-11-24T00:26:32.290Z,96457.22
2022-11-24T00:29:02.514Z,96455.56
2022-11-24T00:31:32.512Z,96455.44
2022-11-24T00:34:03.402Z,96463.19
2022-11-24T00:36:33.533Z,96471.75
2022-11-24T00:39:03.416Z,96474.38
2022-11-24T00:41:32.446Z,96479.50
2022-11-24T00:44:01.427Z,96484.09
2022-11-24T00:46:30.239Z,96481.59
2022-11-24T00:49:00.259Z,96487.13
2022-11-24T00:51:31.334Z,96488.50
2022-11-24T00:54:02.335Z,96489.34
2022-11-24T00:56:31.559Z,96487.41
2022-11-24T00:59:00.379Z,96489.06
2022-11-24T01:01:31.644Z,96502.06
2022-11-24T01:04:02.712Z,96509.13
2022-11-24T01:06:36.684Z,96504.84
2022-11-24T01:09:05.485Z,96517.84
2022-11-24T01:11:55.369Z,96517.84
2022-11-24T01:14:26.646Z,96520.63
2022-11-24T01:16:56.110Z,96528.25
2022-11-24T01:19:25.055Z,96528.53
2022-11-24T01:21:56.777Z,96533.63
2022-11-24T01:24:25.282Z,96532.81
2022-11-24T01:26:55.845Z,96531.97
2022-11-24T01:29:25.986Z,96538.22
2022-11-24T01:31:54.392Z,96544.31
2022-11-24T01:34:23.052Z,96554.81
2022-11-24T01:36:51.931Z,96552.75
2022-11-24T01:39:22.890Z,96548.19
2022-11-24T01:41:53.172Z,96546.94
2022-11-24T01:44:23.762Z,96557.75
2022-11-24T01:46:55.108Z,96560.50
2022-11-24T01:49:25.569Z,96569.91
2022-11-24T01:51:59.345Z,96572.56
2022-11-24T01:54:32.534Z,96568.41
2022-11-24T01:57:08.258Z,96574.34
2022-11-24T01:59:36.919Z,96581.41
2022-11-24T02:02:05.799Z,96575.31
2022-11-24T02:04:34.981Z,96575.31
2022-11-24T02:07:05.596Z,96583.06
2022-11-24T02:09:40.647Z,96583.22
2022-11-24T02:12:09.795Z,96591.78
2022-11-24T02:14:39.326Z,96593.88
2022-11-24T02:17:08.730Z,96593.88
2022-11-24T02:19:44.953Z,96595.41
2022-11-24T02:22:17.679Z,96604.41
2022-11-24T02:24:50.338Z,96608.00
2022-11-24T02:27:20.311Z,96600.34
2022-11-24T02:29:49.505Z,96600.09
2022-11-24T02:32:17.811Z,96620.88
2022-11-24T02:34:46.168Z,96609.38
2022-11-24T02:37:14.535Z,96604.25
2022-11-24T02:39:42.950Z,96614.38
2022-11-24T02:42:12.641Z,96616.44
2022-11-24T02:44:47.353Z,96620.88
2022-11-24T02:47:16.201Z,96626.81
2022-11-24T02:49:44.712Z,96616.31
2022-11-24T02:52:13.248Z,96630.00
2022-11-24T02:54:41.701Z,96630.94
2022-11-24T02:57:10.938Z,96628.31
2022-11-24T02:59:39.695Z,96635.28
2022-11-24T03:02:10.428Z,96638.00
2022-11-24T03:04:38.936Z,96639.69
2022-11-24T03:07:07.842Z,96630.53
2022-11-24T03:09:36.409Z,96632.47
2022-11-24T03:12:05.133Z,96639.38
2022-11-24T03:14:33.817Z,96641.88
2022-11-24T03:17:02.448Z,96639.81
2022-11-24T03:19:32.990Z,96639.13
2022-11-24T03:22:01.415Z,96648.38
2022-11-24T03:24:29.823Z,96635.66
2022-11-24T03:26:58.330Z,96644.09
2022-11-24T03:29:26.739Z,96665.56
2022-11-24T03:31:55.279Z,96667.34
2022-11-24T03:34:23.656Z,96673.72
2022-11-24T03:36:53.515Z,96677.19
2022-11-24T03:39:22.013Z,96685.75
2022-11-24T03:41:51.594Z,96680.50
2022-11-24T03:44:19.957Z,96677.03
2022-11-24T03:46:48.476Z,96683.00
2022-11-24T03:49:16.969Z,96682.88
2022-11-24T03:51:45.510Z,96689.09
2022-11-24T03:54:15.448Z,96679.53
2022-11-24T03:56:43.898Z,96683.69
2022-11-24T03:59:12.435Z,96680.09
2022-11-24T04:01:40.866Z,96691.44
2022-11-24T04:04:11.391Z,96694.81
2022-11-24T04:06:39.912Z,96684.28
2022-11-24T04:09:08.744Z,96695.63
2022-11-24T04:11:55.913Z,96694.81
2022-11-24T04:14:24.458Z,96696.47
2022-11-24T04:16:52.898Z,96697.44
2022-11-24T04:19:21.429Z,96700.06
2022-11-24T04:21:49.871Z,96696.47
2022-11-24T04:24:18.270Z,96693.84
2022-11-24T04:26:48.102Z,96697.44
2022-11-24T04:29:16.540Z,96707.13
2022-11-24T04:31:45.037Z,96701.03
2022-11-24T04:34:13.715Z,96701.03
2022-11-24T04:36:42.156Z,96699.59
2022-11-24T04:39:25.564Z,96704.59
2022-11-24T04:41:56.423Z,96713.91
2022-11-24T04:44:24.933Z,96716.81
2022-11-24T04:46:53.397Z,96718.47
2022-11-24T04:49:22.001Z,96721.94
2022-11-24T04:51:50.380Z,96720.16
2022-11-24T04:54:18.834Z,96727.34
2022-11-24T04:56:51.385Z,96726.59
2022-11-24T04:59:21.451Z,96739.91
2022-11-24T05:01:49.951Z,96734.91
2022-11-24T05:04:20.347Z,96739.06
2022-11-24T05:06:49.129Z,96745.28
2022-11-24T05:09:18.574Z,96742.78
2022-11-24T05:11:46.989Z,96749.84
2022-11-24T05:14:15.393Z,96752.22
2022-11-24T05:16:45.226Z,96758.19
2022-11-24T05:19:14.124Z,96761.78
2022-11-24T05:21:42.766Z,96765.22
2022-11-24T05:24:11.769Z,96771.31
2022-11-24T05:26:40.232Z,96782.56
2022-11-24T05:29:08.639Z,96780.06
2022-11-24T05:31:37.241Z,96776.47
2022-11-24T05:34:07.367Z,96777.56
2022-11-24T05:36:54.292Z,96781.16
2022-11-24T05:39:23.082Z,96789.63
2022-11-24T05:41:51.699Z,96791.66
2022-11-24T05:44:20.183Z,96791.09
2022-11-24T05:46:48.651Z,96797.91
2022-11-24T05:49:18.473Z,96799.69
2022-11-24T05:51:46.901Z,96801.50
2022-11-24T05:54:15.357Z,96803.16
2022-11-24T05:56:43.733Z,96804.13
2022-11-24T05:59:12.216Z,96815.47
2022-11-24T06:01:40.727Z,96815.34
2022-11-24T06:04:09.309Z,96819.63
2022-11-24T06:06:39.126Z,96823.09
2022-11-24T06:09:07.526Z,96824.19
2022-11-24T06:11:36.061Z,96830.16
2022-11-24T06:14:08.289Z,96827.09
2022-11-24T06:16:39.508Z,96826.84
2022-11-24T06:19:07.972Z,96828.50
2022-11-24T06:21:36.486Z,96831.13
2022-11-24T06:24:07.093Z,96829.47
2022-11-24T06:26:35.533Z,96824.06
2022-11-24T06:29:04.197Z,96829.59
2022-11-24T06:31:32.665Z,96829.72
2022-11-24T06:34:01.178Z,96836.66
2022-11-24T06:36:29.585Z,96834.84
2022-11-24T06:38:59.975Z,96835.69
2022-11-24T06:41:32.764Z,96840.81
2022-11-24T06:44:03.878Z,96838.31
2022-11-24T06:46:32.802Z,96849.53
2022-11-24T06:49:02.319Z,96838.19
2022-11-24T06:51:30.654Z,96845.13
2022-11-24T06:53:59.115Z,96845.94
2022-11-24T06:56:27.558Z,96841.66
2022-11-24T06:58:57.663Z,96842.34
2022-11-24T07:01:27.604Z,96837.91
2022-11-24T07:03:57.145Z,96837.91
2022-11-24T07:06:26.760Z,96838.88
2022-11-24T07:08:55.370Z,96832.94
2022-11-24T07:11:24.902Z,96844.88
2022-11-24T07:13:58.321Z,96844.75
2022-11-24T07:16:30.649Z,96845.81
2022-11-24T07:18:59.833Z,96845.59
2022-11-24T07:21:28.896Z,96855.28
2022-11-24T07:23:58.472Z,96850.00
2022-11-24T07:26:27.068Z,96855.97
2022-11-24T07:28:55.626Z,96862.06
2022-11-24T07:31:25.874Z,96867.31
2022-11-24T07:33:56.431Z,96870.09
2022-11-24T07:36:25.303Z,96881.31
2022-11-24T07:38:53.744Z,96876.06
2022-11-24T07:41:22.403Z,96883.94
2022-11-24T07:43:51.680Z,96877.72
2022-11-24T07:46:23.625Z,96877.59
2022-11-24T07:48:52.405Z,96888.09
2022-11-24T07:51:22.211Z,96883.69
2022-11-24T07:53:50.633Z,96879.38
2022-11-24T07:56:19.620Z,96877.00
2022-11-24T07:58:52.671Z,96890.03
2022-11-24T08:01:21.541Z,96889.34
2022-11-24T08:03:50.145Z,96896.41
2022-11-24T08:06:26.049Z,96886.97
2022-11-24T08:09:00.888Z,96873.56
2022-11-24T08:11:31.436Z,96876.88
2022-11-24T08:14:00.013Z,96866.50
2022-11-24T08:16:28.527Z,96871.75
2022-11-24T08:18:57.404Z,96886.31
2022-11-24T08:21:26.293Z,96892.53
2022-11-24T08:23:56.028Z,96893.38
2022-11-24T08:26:26.340Z,96888.25
2022-11-24T08:28:56.953Z,96895.16
2022-11-24T08:31:32.668Z,96894.19
2022-11-24T08:34:02.080Z,96887.00
2022-11-24T08:36:30.816Z,96886.31
2022-11-24T08:39:00.410Z,96881.19
2022-11-24T08:41:31.080Z,96882.00
2022-11-24T08:43:59.531Z,96882.97
2022-11-24T08:46:27.972Z,96886.88
2022-11-24T08:48:56.788Z,96892.00
2022-11-24T08:51:28.577Z,96892.00
2022-11-24T08:53:58.178Z,96892.97
2022-11-24T08:56:27.804Z,96902.53
2022-11-24T08:58:58.457Z,96885.06
2022-11-24T09:01:29.906Z,96888.53
2022-11-24T09:03:58.561Z,96890.06
2022-11-24T09:06:30.808Z,96889.25
2022-11-24T09:09:00.221Z,96892.31
2022-11-24T09:11:28.742Z,96884.28
2022-11-24T09:13:58.874Z,96893.81
2022-11-24T09:16:37.063Z,96888.97
2022-11-24T09:19:08.024Z,96895.22
2022-11-24T09:21:38.951Z,96896.88
2022-11-24T09:24:08.537Z,96899.78
2022-11-24T09:26:47.336Z,96898.25
2022-11-24T09:29:17.629Z,96900.47
2022-11-24T09:31:46.174Z,96907.41
2022-11-24T09:34:16.704Z,96905.03
2022-11-24T09:36:51.611Z,96909.19
2022-11-24T09:39:20.467Z,96902.84
2022-11-24T09:41:59.075Z,96905.59
2022-11-24T09:44:41.544Z,96906.84
2022-11-24T09:47:17.377Z,96908.75
2022-11-24T09:49:51.731Z,96910.03
2022-11-24T09:52:25.808Z,96912.53
2022-11-24T09:55:01.754Z,96917.09
2022-11-24T09:57:37.481Z,96919.72
2022-11-24T10:00:13.777Z,96917.47
2022-11-24T10:02:42.585Z,96922.03
2022-11-24T10:05:13.713Z,96923.84
2022-11-24T10:07:46.124Z,96930.50
2022-11-24T10:10:22.904Z,96933.66
2022-11-24T10:13:00.640Z,96932.44
2022-11-24T10:15:43.576Z,96937.00
2022-11-24T10:18:33.456Z,96935.97
2022-11-24T10:21:09.524Z,96937.31
2022-11-24T10:23:46.475Z,96943.94
2022-11-24T10:26:20.180Z,96931.03
2022-11-24T10:28:53.615Z,96940.41
2022-11-24T10:31:31.846Z,96930.72
2022-11-24T10:34:04.134Z,96935.97
2022-11-24T10:36:40.465Z,96937.06
2022-11-24T10:39:14.405Z,96941.56
2022-11-24T10:41:49.606Z,96941.56
2022-11-24T10:44:18.275Z,96934.91
2022-11-24T10:46:48.226Z,96940.16
2022-11-24T10:49:19.962Z,96952.59
2022-11-24T10:51:57.432Z,96946.38
2022-11-24T10:54:25.948Z,96949.25
2022-11-24T10:56:55.388Z,96948.19
2022-11-24T10:59:32.059Z,96949.59
2022-11-24T11:02:06.062Z,96951.00
2022-11-24T11:04:36.241Z,96952.66
2022-11-24T11:07:19.658Z,96951.28
2022-11-24T11:09:48.972Z,96942.44
2022-11-24T11:15:30.060Z,96944.63
2022-11-24T11:18:01.410Z,96943.97
2022-11-24T11:20:31.603Z,96952.69
2022-11-24T11:23:02.356Z,96955.16
2022-11-24T11:25:33.840Z,96946.72
2022-11-24T11:28:26.828Z,96953.09
2022-11-24T11:31:20.539Z,96958.50
2022-11-24T11:34:03.763Z,96956.56
2022-11-24T11:36:34.192Z,96958.63
2022-11-24T11:39:06.031Z,96955.47
2022-11-24T11:41:42.356Z,96955.34
2022-11-24T11:44:28.457Z,96956.03
2022-11-24T11:47:00.193Z,96955.22
2022-11-24T11:49:30.049Z,96951.34
2022-11-24T11:52:13.309Z,96956.09
2022-11-24T11:54:57.976Z,96959.13
2022-11-24T11:57:31.778Z,96971.19
2022-11-24T12:00:09.459Z,96965.22
2022-11-24T12:02:53.328Z,96963.81
2022-11-24T12:05:31.597Z,96966.31
2022-11-24T12:08:13.417Z,96963.69
2022-11-24T12:10:50.331Z,96961.13
2022-11-24T12:13:44.077Z,96975.38
2022-11-24T12:16:21.417Z,96976.78
2022-11-24T12:18:58.659Z,96990.00
2022-11-24T12:21:31.283Z,96981.97
2022-11-24T12:24:07.333Z,96988.47
2022-11-24T12:26:40.525Z,96988.59
2022-11-24T12:29:33.798Z,96984.28
2022-11-24T12:32:12.027Z,96994.28
2022-11-24T12:34:47.501Z,96984.69
2022-11-24T12:37:41.994Z,96986.94
2022-11-24T12:40:15.793Z,96997.19
2022-11-24T12:42:52.059Z,96992.91
2022-11-24T12:45:26.027Z,96996.81
2022-11-24T12:48:10.787Z,96990.13
2022-11-24T12:50:40.343Z,97000.53
2022-11-24T12:53:14.844Z,96996.81
2022-11-24T12:55:44.316Z,96998.03
2022-11-24T12:58:17.919Z,97007.31
2022-11-24T13:00:58.793Z,97007.06
2022-11-24T13:03:36.995Z,97015.09
2022-11-24T13:06:12.047Z,97010.66
2022-11-24T13:08:42.265Z,97020.09
2022-11-24T13:11:36.141Z,97018.16
2022-11-24T13:14:07.443Z,97012.63
2022-11-24T13:16:44.484Z,97016.50
2022-11-24T13:19:26.328Z,97026.19
2022-11-24T13:22:02.714Z,97033.25
2022-11-24T13:24:36.529Z,97033.97
2022-11-24T13:27:42.607Z,97039.22
2022-11-24T13:30:54.601Z,97027.47
2022-11-24T13:33:38.141Z,97034.53
2022-11-24T13:36:34.945Z,97042.44
2022-11-24T13:39:05.484Z,97047.56
2022-11-24T13:42:04.019Z,97048.53
2022-11-24T13:44:47.941Z,97036.47
2022-11-24T13:47:37.398Z,97048.66
2022-11-24T13:50:09.281Z,97052.84
2022-11-24T13:52:47.586Z,97050.31
2022-11-24T13:55:22.621Z,97054.31
2022-11-24T13:57:53.885Z,97061.13
2022-11-24T14:00:23.797Z,97061.13
2022-11-24T14:02:53.912Z,97057.78
2022-11-24T14:05:24.832Z,97055.16
2022-11-24T14:07:53.723Z,97059.06
2022-11-24T14:10:24.770Z,97059.75
2022-11-24T14:13:19.244Z,97052.69
2022-11-24T14:16:00.196Z,97054.94
2022-11-24T14:18:29.721Z,97048.72
2022-11-24T14:20:58.503Z,97057.88
2022-11-24T14:23:26.946Z,97062.56
2022-11-24T14:25:55.437Z,97055.13
2022-11-24T14:28:26.674Z,97060.94
2022-11-24T14:31:08.105Z,97061.78
2022-11-24T14:33:36.747Z,97060.81
2022-11-24T14:36:05.718Z,97074.56
2022-11-24T14:38:34.975Z,97067.75
2022-11-24T14:41:17.016Z,97074.13
2022-11-24T14:43:46.749Z,97068.03
2022-11-24T14:46:20.042Z,97075.09
2022-11-24T14:48:51.216Z,97070.91
2022-11-24T14:51:22.599Z,97070.09
2022-11-24T14:53:53.676Z,97080.63
2022-11-24T14:56:26.904Z,97076.19
2022-11-24T14:58:57.786Z,97079.78
2022-11-24T15:01:34.566Z,97085.06
2022-11-24T15:04:26.540Z,97092.25
2022-11-24T15:07:05.573Z,97082.53
2022-11-24T15:09:38.337Z,97086.16
2022-11-24T15:12:09.197Z,97096.94
2022-11-24T15:15:00.898Z,97102.34
2022-11-24T15:17:30.567Z,97101.50
2022-11-24T15:20:01.983Z,97102.47
2022-11-24T15:22:38.901Z,97115.38
2022-11-24T15:25:26.892Z,97110.94
2022-11-24T15:27:55.776Z,97108.44
2022-11-24T15:30:25.742Z,97115.38
2022-11-24T15:32:56.141Z,97113.00
2022-11-24T15:35:25.369Z,97120.78
2022-11-24T15:37:53.871Z,97115.06
2022-11-24T15:40:22.396Z,97122.56
2022-11-24T15:42:53.228Z,97131.31
2022-11-24T15:45:22.841Z,97132.84
2022-11-24T15:47:52.809Z,97140.88
2022-11-24T15:50:21.828Z,97132.84
2022-11-24T15:52:50.569Z,97144.34
2022-11-24T15:55:20.177Z,97146.13
2022-11-24T15:57:49.300Z,97154.88
2022-11-24T16:00:19.848Z,97158.47
2022-11-24T16:02:48.595Z,97169.69
2022-11-24T16:05:19.151Z,97166.38
2022-11-24T16:07:47.698Z,97159.44
2022-11-24T16:10:23.352Z,97170.78
2022-11-24T16:12:51.779Z,97163.88
2022-11-24T16:15:20.419Z,97162.19
2022-11-24T16:17:49.244Z,97164.81
2022-11-24T16:20:19.267Z,97161.47
2022-11-24T16:22:47.717Z,97169.13
2022-11-24T16:25:16.783Z,97170.09
2022-11-24T16:27:45.273Z,97170.22
2022-11-24T16:30:14.716Z,97168.41
2022-11-24T16:32:43.117Z,97173.56
2022-11-24T16:35:11.538Z,97168.28
2022-11-24T16:37:41.303Z,97175.34
2022-11-24T16:40:11.002Z,97172.72
2022-11-24T16:42:39.512Z,97174.53
2022-11-24T16:45:10.721Z,97182.28
2022-11-24T16:47:41.625Z,97183.13
2022-11-24T16:50:11.831Z,97182.56
2022-11-24T16:52:41.628Z,97180.63
2022-11-24T16:55:11.660Z,97180.63
2022-11-24T16:57:40.247Z,97179.78
2022-11-24T17:00:09.967Z,97173.25
2022-11-24T17:02:38.530Z,97182.28
2022-11-24T17:05:07.649Z,97185.75
2022-11-24T17:07:36.122Z,97187.56
2022-11-24T17:10:07.513Z,97183.25
2022-11-24T17:12:37.719Z,97188.53
2022-11-24T17:15:31.856Z,97192.00
2022-11-24T17:18:22.947Z,97196.41
2022-11-24T17:20:44.204Z,97192.81
2022-11-24T17:23:15.820Z,97199.88
2022-11-24T17:25:45.977Z,97183.13
2022-11-24T17:28:14.411Z,97198.94
2022-11-24T17:30:43.015Z,97184.09
2022-11-24T17:33:11.632Z,97186.72
2022-11-24T17:35:42.227Z,97183.38
2022-11-24T17:38:13.563Z,97196.41
2022-11-24T17:40:49.074Z,97190.31
2022-11-24T17:43:20.696Z,97190.31
2022-11-24T17:45:54.699Z,97187.09
2022-11-24T17:48:23.978Z,97195.59
2022-11-24T17:51:00.198Z,97205.16
2022-11-24T17:53:28.828Z,97200.84
2022-11-24T17:56:01.409Z,97200.84
2022-11-24T17:58:31.134Z,97200.84
2022-11-24T18:01:00.338Z,97206.13
2022-11-24T18:03:31.522Z,97212.22
2022-11-24T18:06:05.973Z,97214.16
2022-11-24T18:08:35.011Z,97213.31
2022-11-24T18:11:06.026Z,97216.66
2022-11-24T18:13:55.707Z,97217.50
2022-11-24T18:16:27.884Z,97216.66
2022-11-24T18:19:07.906Z,97214.16
2022-11-24T18:21:37.625Z,97220.94
2022-11-24T18:24:06.343Z,97223.72
2022-11-24T18:26:36.172Z,97232.31
2022-11-24T18:29:05.169Z,97234.25
2022-11-24T18:31:35.687Z,97227.19
2022-11-24T18:34:05.173Z,97220.38
2022-11-24T18:36:34.547Z,97227.19
2022-11-24T18:39:03.315Z,97220.25
2022-11-24T18:41:31.882Z,97220.38
2022-11-24T18:44:03.296Z,97219.41
2022-11-24T18:46:32.181Z,97222.16
2022-11-24T18:49:00.938Z,97225.50
2022-11-24T18:51:30.075Z,97224.69
2022-11-24T18:53:58.925Z,97223.00
2022-11-24T18:56:27.925Z,97229.09
2022-11-24T18:58:57.569Z,97230.91
2022-11-24T19:01:29.459Z,97228.41
2022-11-24T19:03:59.979Z,97224.94
2022-11-24T19:06:32.371Z,97225.75
2022-11-24T19:09:02.772Z,97224.09
2022-11-24T19:11:35.473Z,97224.09
2022-11-24T19:14:06.488Z,97236.28
2022-11-24T19:16:36.662Z,97221.34
2022-11-24T19:19:05.454Z,97223.97
2022-11-24T19:21:35.387Z,97223.25
2022-11-24T19:24:05.893Z,97225.91
2022-11-24T19:26:35.757Z,97233.78
2022-11-24T19:29:04.691Z,97230.31
2022-11-24T19:31:33.607Z,97228.53
2022-11-24T19:34:05.788Z,97240.72
2022-11-24T19:36:34.391Z,97233.91
2022-11-24T19:39:05.544Z,97232.97
2022-11-24T19:41:34.674Z,97235.59
2022-11-24T19:44:03.229Z,97229.47
2022-11-24T19:46:31.821Z,97242.66
2022-11-24T19:49:01.757Z,97249.72
2022-11-24T19:51:33.953Z,97241.81
2022-11-24T19:54:02.946Z,97234.75
2022-11-24T19:56:34.122Z,97243.63
2022-11-24T19:59:03.974Z,97236.56
2022-11-24T20:01:33.791Z,97240.28
2022-11-24T20:04:03.757Z,97243.75
2022-11-24T20:06:36.611Z,97249.84
2022-11-24T20:09:06.614Z,97241.22
2022-11-24T20:11:35.523Z,97239.19
2022-11-24T20:14:05.041Z,97241.09
2022-11-24T20:16:35.375Z,97241.22
2022-11-24T20:19:07.110Z,97235.13
2022-11-24T20:21:38.312Z,97243.03
2022-11-24T20:24:10.726Z,97238.47
2022-11-24T20:26:41.417Z,97241.22
2022-11-24T20:29:12.117Z,97246.50
2022-11-24T20:31:42.818Z,97240.41
2022-11-24T20:34:13.607Z,97243.03
2022-11-24T20:36:45.152Z,97243.03
2022-11-24T20:39:16.587Z,97244.00
2022-11-24T20:41:45.317Z,97242.19
2022-11-24T20:44:15.364Z,97237.31
2022-11-24T20:46:45.654Z,97238.00
2022-11-24T20:49:16.432Z,97244.25
2022-11-24T20:51:48.004Z,97249.63
2022-11-24T20:54:20.141Z,97253.81
2022-11-24T20:56:49.604Z,97248.53
2022-11-24T20:59:22.350Z,97253.09
2022-11-24T21:01:51.580Z,97253.09
2022-11-24T21:04:22.717Z,97247.84
2022-11-24T21:06:52.612Z,97240.19
2022-11-24T21:09:21.323Z,97238.38
2022-11-24T21:11:50.078Z,97244.38
2022-11-24T21:14:18.509Z,97247.84
2022-11-24T21:16:47.185Z,97244.50
2022-11-24T21:19:18.093Z,97258.63
2022-11-24T21:21:47.583Z,97248.09
2022-11-24T21:24:18.763Z,97248.91
2022-11-24T21:26:48.019Z,97249.88
2022-11-24T21:29:19.465Z,97249.03
2022-11-24T21:31:48.860Z,97250.84
2022-11-24T21:34:19.382Z,97247.38
2022-11-24T21:36:48.250Z,97255.53
2022-11-24T21:39:18.508Z,97257.19
2022-11-24T21:41:47.603Z,97252.75
2022-11-24T21:44:16.107Z,97244.03
2022-11-24T21:46:49.718Z,97251.94
2022-11-24T21:49:23.109Z,97258.88
2022-11-24T21:51:55.885Z,97252.88
2022-11-24T21:54:26.033Z,97246.78
2022-11-24T21:56:55.485Z,97246.78
2022-11-24T21:59:23.969Z,97234.47
2022-11-24T22:01:52.567Z,97237.22
2022-11-24T22:04:21.314Z,97231.13
2022-11-24T22:06:49.804Z,97238.19
2022-11-24T22:09:18.705Z,97240.81
2022-11-24T22:11:49.578Z,97245.25
2022-11-24T22:14:18.087Z,97247.88
2022-11-24T22:16:50.372Z,97246.91
2022-11-24T22:19:19.466Z,97241.06
2022-11-24T22:21:48.200Z,97249.78
2022-11-24T22:24:16.621Z,97243.69
2022-11-24T22:26:45.016Z,97234.97
2022-11-24T22:29:14.962Z,97235.69
2022-11-24T22:31:43.402Z,97229.69
2022-11-24T22:34:11.826Z,97235.81
2022-11-24T22:36:40.256Z,97235.94
2022-11-24T22:39:12.559Z,97234.13
2022-11-24T22:41:40.992Z,97230.53
2022-11-24T22:44:09.484Z,97229.97
2022-11-24T22:46:39.402Z,97236.19
2022-11-24T22:49:07.850Z,97240.34
2022-11-24T22:51:39.540Z,97230.81
2022-11-24T22:54:07.977Z,97224.72
2022-11-24T22:56:36.279Z,97224.00
2022-11-24T22:59:05.527Z,97226.50
2022-11-24T23:01:34.695Z,97229.28
2022-11-24T23:04:04.894Z,97220.53
2022-11-24T23:06:34.182Z,97226.75
2022-11-24T23:09:04.006Z,97217.06
2022-11-24T23:11:37.958Z,97223.03
2022-11-24T23:14:07.806Z,97227.59
2022-11-24T23:16:36.360Z,97224.00
2022-11-24T23:19:06.599Z,97219.94
2022-11-24T23:21:38.278Z,97220.66
2022-11-24T23:24:08.071Z,97230.22
2022-11-24T23:26:38.328Z,97220.66
2022-11-24T23:29:07.330Z,97227.72
2022-11-24T23:31:36.062Z,97232.16
2022-11-24T23:34:06.503Z,97232.16
2022-11-24T23:36:34.898Z,97235.75
2022-11-24T23:39:04.919Z,97235.75
2022-11-24T23:41:33.462Z,97227.00
2022-11-24T23:44:02.026Z,97236.69
2022-11-24T23:46:30.511Z,97236.56
2022-11-24T23:48:59.222Z,97232.28
2022-11-24T23:51:30.297Z,97231.44
2022-11-24T23:53:59.262Z,97220.19
2022-11-24T23:56:31.455Z,97220.19
2022-11-24T23:59:00.046Z,97223.66
